Time;durP1;ratioP1;P1;durP2;ratioP2;P2;SDS_P1;SDS_P2;PMS_P1;PMS_P2;Temp;Humidity;BMP_temperature;BMP_pressure;BME280_temperature;BME280_humidity;BME280_pressure;Samples;Min_cycle;Max_cycle;Signal;HPM_P1;HPM_P2
2023/07/24 00:04:05;;;;;;;0.93;0.90;;;;;;;14.74;82.96;99719.88;10525622;28;20528;-75
2023/07/24 00:09:09;;;;;;;1.50;0.82;;;;;;;14.60;83.62;99722.88;10510038;28;20071;-75
2023/07/24 00:14:12;;;;;;;1.08;0.90;;;;;;;14.59;84.11;99718.50;10509890;28;20056;-75
2023/07/24 00:19:14;;;;;;;2.60;1.00;;;;;;;14.59;85.19;99718.50;10527011;28;20552;-74
2023/07/24 00:24:16;;;;;;;4.20;1.08;;;;;;;14.53;85.57;99713.47;10507615;28;20047;-74
2023/07/24 00:29:18;;;;;;;1.05;0.85;;;;;;;14.47;86.17;99710.09;10509033;28;20514;-74
2023/07/24 00:34:20;;;;;;;2.38;1.10;;;;;;;14.49;86.16;99694.00;10526538;28;20040;-74
2023/07/24 00:39:22;;;;;;;1.65;1.05;;;;;;;14.48;86.75;99693.19;10524946;28;20411;-74
2023/07/24 00:44:24;;;;;;;2.97;0.90;;;;;;;14.44;86.87;99695.00;10508673;28;20128;-74
2023/07/24 00:49:27;;;;;;;0.90;0.90;;;;;;;14.38;86.68;99689.94;10508440;28;20052;-74
2023/07/24 00:54:31;;;;;;;2.03;1.92;;;;;;;14.30;86.50;99688.03;10525942;28;20044;-74
2023/07/24 00:59:33;;;;;;;1.23;0.70;;;;;;;14.24;86.65;99689.34;10505968;28;20052;-74
2023/07/24 01:04:35;;;;;;;0.75;0.68;;;;;;;14.18;85.70;99695.03;10523897;28;20041;-74
2023/07/24 01:09:38;;;;;;;0.77;0.77;;;;;;;14.14;85.25;99690.50;10525235;28;20053;-74
2023/07/24 01:14:47;;;;;;;1.58;1.00;;;;;;;14.13;84.68;99684.16;10504505;28;20048;-74
2023/07/24 01:19:53;;;;;;;0.95;0.80;;;;;;;14.13;85.43;99684.16;10504679;28;20051;-74
2023/07/24 01:25:10;;;;;;;2.78;0.98;;;;;;;14.17;85.38;99678.78;10486807;28;20044;-74
2023/07/24 01:30:18;;;;;;;2.80;0.90;;;;;;;14.16;85.67;99675.22;10521428;28;20040;-74
2023/07/24 01:35:20;;;;;;;2.15;1.13;;;;;;;14.18;85.83;99675.69;10521252;28;20044;-74
2023/07/24 01:40:23;;;;;;;4.45;1.08;;;;;;;14.16;87.14;99674.41;10524504;28;20045;-73
2023/07/24 01:45:25;;;;;;;0.80;0.80;;;;;;;14.17;87.57;99670.53;10506345;28;20048;-74
2023/07/24 01:50:28;;;;;;;1.90;1.10;;;;;;;14.15;87.98;99673.59;10505566;28;20060;-74
2023/07/24 01:55:30;;;;;;;3.13;0.95;;;;;;;14.15;88.46;99676.38;10524312;28;20048;-74
2023/07/24 02:00:32;;;;;;;2.92;1.10;;;;;;;14.18;88.38;99670.19;10502076;28;20474;-74
2023/07/24 02:05:35;;;;;;;2.40;1.25;;;;;;;14.31;87.87;99673.09;10502729;28;20053;-74
2023/07/24 02:10:38;;;;;;;2.10;1.00;;;;;;;14.95;86.31;99673.81;10527476;28;20048;-74
2023/07/24 02:15:41;;;;;;;2.63;1.08;;;;;;;15.48;82.95;99677.03;10514105;28;20053;-74
2023/07/24 02:20:49;;;;;;;2.60;0.90;;;;;;;15.37;82.40;99665.56;10526021;28;20036;-74
2023/07/24 02:25:52;;;;;;;2.33;1.05;;;;;;;15.01;84.04;99669.69;10531241;28;20048;-74
2023/07/24 02:30:58;;;;;;;1.42;0.80;;;;;;;15.76;81.57;99667.03;10513006;28;20051;-74
2023/07/24 02:36:01;;;;;;;2.37;1.20;;;;;;;16.05;78.74;99668.88;10512156;28;20045;-74
2023/07/24 02:41:04;;;;;;;3.10;0.95;;;;;;;16.32;78.57;99663.91;10513649;28;20498;-74
2023/07/24 02:46:06;;;;;;;2.90;1.25;;;;;;;16.92;76.06;99665.09;10513905;28;20036;-74
2023/07/24 02:51:08;;;;;;;2.08;1.42;;;;;;;17.23;74.27;99657.00;10528675;28;20055;-74
2023/07/24 02:56:10;;;;;;;2.17;0.80;;;;;;;17.40;72.79;99655.91;10531119;28;20053;-74
2023/07/24 03:01:14;;;;;;;4.18;0.90;;;;;;;17.16;73.40;99665.06;10534400;28;20056;-74
2023/07/24 03:06:16;;;;;;;1.50;1.00;;;;;;;17.63;72.02;99664.50;10518829;28;20047;-75
2023/07/24 03:11:18;;;;;;;2.78;1.05;;;;;;;17.06;73.77;99657.25;10530710;28;20047;-75
2023/07/24 03:16:21;;;;;;;4.00;1.10;;;;;;;17.60;72.33;99654.13;10510892;28;20040;-74
2023/07/24 03:21:23;;;;;;;2.17;1.00;;;;;;;17.49;72.98;99657.38;10531956;28;20045;-74
2023/07/24 03:26:25;;;;;;;0.93;0.90;;;;;;;18.12;70.04;99656.81;10527599;28;20049;-74
2023/07/24 03:31:27;;;;;;;1.42;1.00;;;;;;;18.19;70.07;99659.75;10526491;28;20060;-74
2023/07/24 03:36:29;;;;;;;1.08;0.73;;;;;;;18.21;69.06;99657.44;10530967;28;20036;-74
2023/07/24 03:41:32;;;;;;;2.50;1.20;;;;;;;18.62;68.82;99655.31;10529624;28;20047;-75
2023/07/24 03:46:34;;;;;;;2.40;1.02;;;;;;;17.93;70.11;99654.72;10529591;28;20040;-74
2023/07/24 03:51:36;;;;;;;4.20;1.48;;;;;;;18.52;69.37;99655.84;10529401;28;20521;-74
2023/07/24 03:56:39;;;;;;;1.38;0.88;;;;;;;19.44;65.55;99666.44;10512145;28;20029;-74
2023/07/24 04:01:42;;;;;;;1.38;1.10;;;;;;;18.24;68.36;99662.28;10529449;28;20051;-74
2023/07/24 04:06:45;;;;;;;1.10;0.90;;;;;;;18.50;68.44;99659.00;10524925;28;20044;-75
2023/07/24 04:11:47;;;;;;;2.72;1.83;;;;;;;20.29;63.23;99655.38;10528980;28;20044;-75
2023/07/24 04:16:50;;;;;;;1.52;0.77;;;;;;;20.07;63.79;99660.56;10528972;28;20387;-74
2023/07/24 04:21:52;;;;;;;1.30;1.00;;;;;;;20.35;62.81;99651.13;10521118;28;20060;-75
2023/07/24 04:26:54;;;;;;;0.82;0.68;;;;;;;21.58;58.88;99661.88;10527521;28;20036;-74
2023/07/24 04:31:56;;;;;;;2.58;0.90;;;;;;;20.76;61.05;99667.00;10509174;28;20399;-75
2023/07/24 04:36:59;;;;;;;1.60;0.95;;;;;;;21.05;59.88;99650.72;10519176;28;20033;-75
2023/07/24 04:42:01;;;;;;;1.00;0.85;;;;;;;22.36;56.58;99640.41;10519161;28;20036;-75
2023/07/24 04:47:03;;;;;;;1.10;0.90;;;;;;;22.25;56.57;99639.53;10527461;28;20056;-75
2023/07/24 04:52:05;;;;;;;2.67;1.60;;;;;;;23.07;53.55;99641.03;10517285;28;20049;-75
2023/07/24 04:57:08;;;;;;;2.60;1.10;;;;;;;22.99;53.36;99633.78;10520810;28;20040;-75
2023/07/24 05:02:10;;;;;;;2.13;1.25;;;;;;;23.12;53.12;99637.88;10527673;28;20048;-75
2023/07/24 05:07:12;;;;;;;0.85;0.70;;;;;;;23.44;51.70;99638.06;10523964;28;20036;-75
2023/07/24 05:12:14;;;;;;;1.35;0.95;;;;;;;23.09;54.07;99630.28;10523541;28;20052;-75
2023/07/24 05:17:17;;;;;;;1.85;0.77;;;;;;;22.95;52.88;99620.97;10504659;28;20045;-81
2023/07/24 05:22:19;;;;;;;2.25;0.95;;;;;;;22.38;54.70;99612.09;10507068;28;20033;-74
2023/07/24 05:27:21;;;;;;;1.80;1.10;;;;;;;22.99;53.12;99605.81;10519464;28;20040;-74
2023/07/24 05:32:23;;;;;;;1.77;0.90;;;;;;;23.28;51.59;99606.00;10520475;28;20063;-74
2023/07/24 05:37:25;;;;;;;1.42;1.10;;;;;;;21.19;56.75;99608.28;10524023;28;20048;-76
2023/07/24 05:42:28;;;;;;;1.20;0.80;;;;;;;20.60;58.75;99605.00;10526834;28;20553;-75
2023/07/24 05:47:30;;;;;;;2.05;0.77;;;;;;;21.82;56.18;99596.31;10525773;28;20055;-75
2023/07/24 05:52:32;;;;;;;1.13;0.90;;;;;;;21.27;56.71;99605.25;10524882;28;20136;-75
2023/07/24 05:57:35;;;;;;;1.15;0.77;;;;;;;20.23;59.73;99603.94;10521944;28;20489;-75
2023/07/24 06:02:37;;;;;;;1.58;0.75;;;;;;;19.94;60.66;99597.84;10526355;28;20123;-75
2023/07/24 06:07:39;;;;;;;2.40;0.90;;;;;;;19.50;61.60;99603.75;10492947;28;20051;-75
2023/07/24 06:12:41;;;;;;;5.80;1.00;;;;;;;19.15;62.86;99616.88;10528514;28;20063;-75
2023/07/24 06:17:44;;;;;;;4.70;1.13;;;;;;;18.87;65.08;99620.63;10526122;28;20048;-75
2023/07/24 06:22:47;;;;;;;2.13;1.00;;;;;;;18.89;66.27;99628.59;10526587;28;20053;-75
2023/07/24 06:27:49;;;;;;;1.80;1.45;;;;;;;19.68;63.84;99617.25;10510418;28;20439;-75
2023/07/24 06:32:51;;;;;;;1.65;1.00;;;;;;;20.08;62.14;99603.69;10525711;28;20063;-75
2023/07/24 06:37:53;;;;;;;2.22;1.00;;;;;;;19.99;62.01;99610.69;10526165;28;20466;-75
2023/07/24 06:42:55;;;;;;;1.58;1.20;;;;;;;19.83;62.90;99608.00;10528931;28;20513;-75
2023/07/24 06:47:58;;;;;;;1.40;1.00;;;;;;;19.29;63.95;99600.50;10525225;28;20040;-75
2023/07/24 06:53:00;;;;;;;1.75;1.10;;;;;;;18.64;65.38;99609.38;10528686;28;20060;-75
2023/07/24 06:58:03;;;;;;;1.52;1.10;;;;;;;18.78;65.43;99596.97;10532424;28;20524;-75
2023/07/24 07:03:05;;;;;;;0.77;0.73;;;;;;;18.72;65.46;99593.66;10531365;28;20045;-75
2023/07/24 07:08:07;;;;;;;3.50;0.90;;;;;;;21.01;59.66;99578.16;10532238;28;20048;-75
2023/07/24 07:13:10;;;;;;;1.15;0.85;;;;;;;23.30;53.13;99578.41;10535448;28;20055;-75
2023/07/24 07:18:12;;;;;;;1.95;1.10;;;;;;;24.11;51.09;99586.25;10532042;28;20064;-75
2023/07/24 07:23:14;;;;;;;0.90;0.90;;;;;;;21.93;54.55;99588.88;10531701;28;20058;-75
2023/07/24 07:28:17;;;;;;;3.95;1.45;;;;;;;20.74;57.03;99594.09;10530976;28;20053;-75
2023/07/24 07:33:21;;;;;;;1.63;1.00;;;;;;;24.18;49.26;99583.50;10530971;28;20055;-75
2023/07/24 07:38:24;;;;;;;3.38;1.20;;;;;;;22.25;51.54;99586.44;10533870;28;20048;-75
2023/07/24 07:43:26;;;;;;;1.10;0.98;;;;;;;20.88;54.82;99578.75;10530627;28;20048;-75
2023/07/24 07:48:29;;;;;;;1.98;0.90;;;;;;;23.77;48.93;99557.78;10530623;28;20446;-75
2023/07/24 07:53:31;;;;;;;1.80;0.77;;;;;;;25.19;44.64;99557.00;10530123;28;20052;-75
2023/07/24 07:58:33;;;;;;;3.03;0.80;;;;;;;21.86;49.78;99581.22;10530235;28;20043;-75
2023/07/24 08:03:36;;;;;;;2.60;0.80;;;;;;;20.57;52.76;99577.09;10530543;28;20055;-75
2023/07/24 08:08:38;;;;;;;1.63;1.05;;;;;;;21.12;53.41;99569.94;10510534;28;20044;-75
2023/07/24 08:13:41;;;;;;;1.15;1.00;;;;;;;24.43;45.60;99568.69;10529480;28;20044;-75
2023/07/24 08:18:45;;;;;;;1.60;0.73;;;;;;;26.22;41.53;99556.47;10529436;28;20047;-75
2023/07/24 08:23:48;;;;;;;6.25;0.80;;;;;;;25.94;42.13;99562.28;10529250;28;20040;-75
2023/07/24 08:28:50;;;;;;;1.00;0.77;;;;;;;23.48;47.83;99576.47;10529054;28;20044;-76
2023/07/24 08:33:54;;;;;;;2.28;0.88;;;;;;;21.27;52.15;99573.75;10470885;28;20047;-75
2023/07/24 08:38:56;;;;;;;2.13;0.80;;;;;;;21.62;50.75;99573.38;10469458;28;20045;-75
2023/07/24 08:43:59;;;;;;;1.75;0.90;;;;;;;23.99;45.51;99564.25;10487428;28;20037;-75
2023/07/24 08:49:01;;;;;;;3.40;0.80;;;;;;;23.77;46.23;99572.59;10468536;28;20049;-75
2023/07/24 08:54:04;;;;;;;3.75;0.93;;;;;;;21.94;51.13;99588.50;10468464;28;20060;-75
2023/07/24 08:59:07;;;;;;;2.63;0.80;;;;;;;20.56;54.25;99590.22;10486663;28;20048;-75
2023/07/24 09:04:09;;;;;;;2.15;1.00;;;;;;;21.10;52.51;99577.88;10524957;28;20056;-76
2023/07/24 09:09:15;;;;;;;1.35;1.00;;;;;;;21.48;53.13;99576.00;10510138;28;20044;-76
2023/07/24 09:14:27;;;;;;;1.63;1.10;;;;;;;21.32;52.68;99588.16;10509232;28;20047;-75
2023/07/24 09:19:29;;;;;;;2.03;0.85;;;;;;;19.94;56.52;99577.56;10526983;28;20036;-75
2023/07/24 09:24:31;;;;;;;2.08;0.85;;;;;;;20.92;55.14;99571.25;10512309;28;20063;-75
2023/07/24 09:29:34;;;;;;;2.78;1.10;;;;;;;20.57;55.74;99577.88;10526971;28;20569;-74
2023/07/24 09:34:42;;;;;;;0.80;0.80;;;;;;;21.45;53.63;99580.34;10526267;28;20040;-74
2023/07/24 09:39:46;;;;;;;1.02;0.80;;;;;;;20.99;54.53;99562.97;10534319;28;20118;-74
2023/07/24 09:44:48;;;;;;;1.67;0.70;;;;;;;20.83;54.44;99570.72;10568289;28;20137;-74
2023/07/24 09:49:52;;;;;;;2.85;0.90;;;;;;;20.35;54.86;99581.47;10568631;28;20056;-74
2023/07/24 09:55:09;;;;;;;2.03;0.90;;;;;;;20.20;56.83;99568.47;10567959;28;20048;-74
2023/07/24 10:00:12;;;;;;;1.60;0.90;;;;;;;19.93;57.10;99576.75;10533300;28;20556;-75
2023/07/24 10:05:15;;;;;;;1.38;0.70;;;;;;;19.23;57.90;99579.72;10508005;28;20040;-74
2023/07/24 10:10:18;;;;;;;3.85;1.00;;;;;;;19.12;58.30;99578.69;10491481;28;20055;-74
2023/07/24 10:15:20;;;;;;;1.55;0.90;;;;;;;19.18;58.61;99583.59;10528610;28;20059;-74
2023/07/24 10:20:23;;;;;;;1.33;0.80;;;;;;;19.25;57.35;99583.72;10562246;28;20044;-75
2023/07/24 10:25:30;;;;;;;1.05;0.63;;;;;;;19.18;57.58;99588.34;10562247;28;20418;-74
2023/07/24 10:30:34;;;;;;;2.25;1.20;;;;;;;19.08;57.65;99597.25;10571316;28;20051;-74
2023/07/24 10:35:44;;;;;;;2.75;1.05;;;;;;;19.01;57.76;99595.13;10575172;28;20044;-75
2023/07/24 10:40:51;;;;;;;1.52;1.42;;;;;;;18.94;59.01;99583.84;10572741;28;20387;-74
2023/07/24 10:45:54;;;;;;;2.80;1.02;;;;;;;18.92;57.29;99587.00;10532476;28;20048;-74
2023/07/24 10:50:56;;;;;;;1.13;1.00;;;;;;;19.12;56.92;99570.34;10532886;28;20097;-75
2023/07/24 10:56:00;;;;;;;2.80;0.80;;;;;;;19.83;55.31;99575.41;10532612;28;20059;-74
2023/07/24 11:01:06;;;;;;;4.15;1.00;;;;;;;19.89;55.14;99570.31;10532691;28;20036;-74
2023/07/24 11:06:19;;;;;;;4.03;0.90;;;;;;;20.20;53.85;99565.69;10498492;28;20037;-74
2023/07/24 11:11:22;;;;;;;0.90;0.80;;;;;;;20.09;53.42;99565.50;10531220;28;20060;-74
2023/07/24 11:16:24;;;;;;;1.35;1.02;;;;;;;20.25;53.28;99563.41;10514126;28;20063;-74
2023/07/24 11:21:26;;;;;;;0.75;0.75;;;;;;;19.98;53.41;99559.75;10531679;28;20048;-74
2023/07/24 11:26:29;;;;;;;0.65;0.65;;;;;;;20.08;53.60;99561.91;10550051;28;20051;-74
2023/07/24 11:31:38;;;;;;;5.40;1.05;;;;;;;20.19;53.80;99564.91;10572309;28;20066;-74
2023/07/24 11:36:40;;;;;;;1.17;0.80;;;;;;;19.98;53.68;99570.91;10551559;28;20394;-74
2023/07/24 11:41:42;;;;;;;1.20;0.70;;;;;;;19.84;53.87;99557.50;10512685;28;20075;-75
2023/07/24 11:46:46;;;;;;;0.75;0.68;;;;;;;19.76;54.36;99558.53;10530751;28;20044;-75
2023/07/24 11:51:49;;;;;;;3.95;1.15;;;;;;;19.90;54.51;99573.91;10512853;28;20047;-75
2023/07/24 11:56:52;;;;;;;1.55;1.10;;;;;;;19.93;54.28;99565.63;10513399;28;20047;-74
2023/07/24 12:01:54;;;;;;;2.35;0.90;;;;;;;19.55;55.31;99572.06;10530455;28;20040;-75
2023/07/24 12:06:56;;;;;;;2.13;0.80;;;;;;;19.62;52.63;99577.78;10529130;28;20476;-73
2023/07/24 12:11:59;;;;;;;4.18;1.13;;;;;;;19.62;52.50;99571.41;10529874;28;20036;-76
2023/07/24 12:17:09;;;;;;;1.33;0.90;;;;;;;19.62;52.45;99563.06;10530020;28;20047;-75
2023/07/24 12:22:11;;;;;;;1.15;0.85;;;;;;;19.66;51.91;99563.94;10529662;28;20040;-75
2023/07/24 12:27:14;;;;;;;0.70;0.70;;;;;;;19.37;53.79;99574.44;10529627;28;20056;-74
2023/07/24 12:32:16;;;;;;;3.90;0.68;;;;;;;19.44;52.10;99560.69;10529159;28;20044;-75
2023/07/24 12:37:18;;;;;;;0.85;0.70;;;;;;;19.38;51.14;99562.16;10528715;28;20051;-74
2023/07/24 12:42:20;;;;;;;0.82;0.82;;;;;;;19.40;52.90;99570.13;10531760;28;20036;-75
2023/07/24 12:47:22;;;;;;;1.55;1.35;;;;;;;19.46;52.03;99565.91;10511283;28;20201;-75
2023/07/24 12:52:26;;;;;;;1.50;0.70;;;;;;;19.31;50.59;99563.97;10509732;28;20467;-75
2023/07/24 12:57:28;;;;;;;4.03;0.70;;;;;;;19.41;51.37;99566.16;10509283;28;20510;-74
2023/07/24 13:02:31;;;;;;;1.05;0.70;;;;;;;19.45;50.51;99556.75;10522927;28;20048;-75
2023/07/24 13:07:34;;;;;;;0.50;0.43;;;;;;;19.70;47.64;99564.78;10527993;28;20041;-75
2023/07/24 13:12:36;;;;;;;1.60;0.55;;;;;;;19.57;50.89;99561.34;10527082;28;20418;-75
2023/07/24 13:17:38;;;;;;;1.00;1.00;;;;;;;19.48;51.86;99556.00;10527103;28;20155;-75
2023/07/24 13:22:43;;;;;;;0.98;0.75;;;;;;;19.30;53.50;99560.41;10528403;28;20511;-75
2023/07/24 13:27:45;;;;;;;0.50;0.50;;;;;;;19.28;52.52;99562.75;10530270;28;20597;-75
2023/07/24 13:32:47;;;;;;;1.27;0.60;;;;;;;19.18;51.99;99555.78;10526127;28;20064;-75
2023/07/24 13:37:49;;;;;;;0.80;0.50;;;;;;;19.29;52.80;99544.88;10527558;28;20060;-75
2023/07/24 13:42:51;;;;;;;0.60;0.60;;;;;;;19.32;52.89;99549.72;10526452;28;20045;-75
2023/07/24 13:47:54;;;;;;;0.77;0.50;;;;;;;19.19;53.52;99553.78;10526613;28;20036;-75
2023/07/24 13:52:56;;;;;;;1.80;0.85;;;;;;;19.31;53.61;99553.66;10525997;28;20060;-75
2023/07/24 13:57:59;;;;;;;2.33;1.00;;;;;;;19.35;53.16;99559.28;10525963;28;20052;-75
2023/07/24 14:03:01;;;;;;;0.60;0.60;;;;;;;19.09;54.19;99563.53;10526729;28;20052;-75
2023/07/24 14:08:03;;;;;;;0.63;0.60;;;;;;;18.94;52.95;99545.75;10534253;28;20049;-75
2023/07/24 14:13:05;;;;;;;2.38;0.80;;;;;;;19.05;52.63;99556.28;10533798;28;20059;-75
2023/07/24 14:18:08;;;;;;;1.55;0.90;;;;;;;19.15;52.78;99562.06;10533857;28;20048;-75
2023/07/24 14:23:10;;;;;;;0.95;0.80;;;;;;;19.09;51.16;99554.38;10533845;28;20051;-75
2023/07/24 14:28:12;;;;;;;0.55;0.50;;;;;;;18.90;51.91;99577.38;10534464;28;20490;-75
2023/07/24 14:33:14;;;;;;;1.30;0.65;;;;;;;18.83;50.94;99568.91;10533214;28;20049;-75
2023/07/24 14:38:17;;;;;;;0.68;0.30;;;;;;;18.75;50.83;99569.91;10533255;28;20040;-75
2023/07/24 14:43:19;;;;;;;0.90;0.60;;;;;;;18.77;50.51;99562.03;10533337;28;20506;-75
2023/07/24 14:48:21;;;;;;;3.00;1.35;;;;;;;18.81;49.01;99558.16;10515275;28;20119;-75
2023/07/24 14:53:23;;;;;;;1.13;1.02;;;;;;;18.75;49.81;99554.03;10532623;28;20056;-75
2023/07/24 14:58:25;;;;;;;1.92;0.70;;;;;;;18.89;48.41;99556.31;10532329;28;20045;-75
2023/07/24 15:03:28;;;;;;;1.65;0.75;;;;;;;18.76;48.05;99561.22;10503134;28;20045;-75
2023/07/24 15:08:30;;;;;;;0.88;0.70;;;;;;;18.64;48.09;99547.44;10490183;28;20055;-75
2023/07/24 15:13:32;;;;;;;1.95;0.90;;;;;;;18.57;47.94;99550.81;10525677;28;20063;-76
2023/07/24 15:18:34;;;;;;;1.40;0.90;;;;;;;18.55;49.35;99550.34;10531323;28;20040;-75
2023/07/24 15:23:37;;;;;;;0.47;0.35;;;;;;;18.48;48.90;99549.41;10529104;28;20056;-75
2023/07/24 15:28:39;;;;;;;3.08;1.02;;;;;;;18.56;48.65;99549.19;10512098;28;20040;-75
2023/07/24 15:33:41;;;;;;;0.73;0.70;;;;;;;18.50;48.36;99535.94;10531209;28;20059;-75
2023/07/24 15:38:43;;;;;;;1.58;0.60;;;;;;;18.51;45.69;99537.56;10530867;28;20048;-75
2023/07/24 15:43:45;;;;;;;0.88;0.60;;;;;;;18.52;45.44;99539.97;10533519;28;20044;-75
2023/07/24 15:48:47;;;;;;;1.98;0.88;;;;;;;18.45;46.70;99537.03;10496941;28;20044;-75
2023/07/24 15:53:50;;;;;;;0.47;0.47;;;;;;;18.42;48.01;99535.00;10530023;28;20048;-75
2023/07/24 15:58:52;;;;;;;0.77;0.65;;;;;;;18.39;47.46;99538.47;10533836;28;20045;-75
2023/07/24 16:03:54;;;;;;;0.82;0.60;;;;;;;18.21;47.95;99532.47;10530471;28;20044;-75
2023/07/24 16:08:57;;;;;;;0.85;0.60;;;;;;;18.20;47.36;99525.31;10530385;28;20529;-75
2023/07/24 16:13:59;;;;;;;1.02;0.60;;;;;;;18.21;47.70;99521.38;10529736;28;20052;-75
2023/07/24 16:19:14;;;;;;;1.15;0.70;;;;;;;18.28;48.45;99515.19;10529336;28;20453;-75
2023/07/24 16:24:17;;;;;;;0.68;0.50;;;;;;;18.31;48.35;99514.47;10529452;28;20514;-75
2023/07/24 16:29:19;;;;;;;1.08;0.70;;;;;;;18.22;48.48;99514.69;10510787;28;20846;-75
2023/07/24 16:34:22;;;;;;;3.55;0.80;;;;;;;18.10;48.94;99512.00;10529541;28;20036;-76
2023/07/24 16:39:24;;;;;;;1.23;0.73;;;;;;;18.13;49.49;99513.25;10511052;28;20048;-75
2023/07/24 16:44:27;;;;;;;0.82;0.82;;;;;;;18.23;48.67;99510.72;10528565;28;20063;-75
2023/07/24 16:49:30;;;;;;;0.93;0.85;;;;;;;18.21;48.21;99507.47;10510652;28;20063;-75
2023/07/24 16:54:35;;;;;;;1.73;1.05;;;;;;;18.19;48.27;99509.81;10501838;28;20048;-75
2023/07/24 16:59:37;;;;;;;3.30;0.90;;;;;;;18.15;47.34;99506.16;10524752;28;20402;-75
2023/07/24 17:04:42;;;;;;;2.63;0.70;;;;;;;17.95;47.78;99510.81;10503036;28;20041;-75
2023/07/24 17:09:45;;;;;;;1.08;0.70;;;;;;;17.82;47.81;99508.47;10525022;28;20470;-75
2023/07/24 17:14:48;;;;;;;1.33;0.90;;;;;;;17.78;48.01;99511.97;10519095;28;20122;-76
2023/07/24 17:19:51;;;;;;;0.75;0.75;;;;;;;17.62;48.76;99507.53;10509139;28;20036;-75
2023/07/24 17:25:19;;;;;;;0.70;0.70;;;;;;;17.49;49.04;99507.59;10520643;28;20477;-75
2023/07/24 17:30:21;;;;;;;1.55;1.45;;;;;;;17.47;49.61;99496.06;10496319;28;20049;-79
2023/07/24 17:35:23;;;;;;;0.80;0.80;;;;;;;17.41;49.49;99505.81;10519619;28;20055;-81
2023/07/24 17:40:26;;;;;;;1.35;0.80;;;;;;;17.30;50.35;99507.47;10493271;28;20045;-80
2023/07/24 17:45:28;;;;;;;1.23;0.90;;;;;;;17.28;50.63;99509.78;10502608;28;20055;-84
2023/07/24 17:50:33;;;;;;;1.98;0.80;;;;;;;17.27;50.88;99510.16;10512751;28;20060;-76
2023/07/24 17:55:36;;;;;;;1.75;1.25;;;;;;;17.11;52.16;99504.53;10488169;28;20052;-77
2023/07/24 18:00:42;;;;;;;1.63;1.23;;;;;;;17.01;53.35;99511.41;10515619;28;20048;-76
2023/07/24 18:05:44;;;;;;;4.72;2.03;;;;;;;16.95;53.95;99512.00;10499200;28;20048;-76
2023/07/24 18:10:46;;;;;;;4.75;1.77;;;;;;;16.83;54.88;99518.38;10524871;28;20044;-78
2023/07/24 18:15:49;;;;;;;2.22;1.50;;;;;;;16.74;55.20;99523.25;10490023;28;20056;-77
2023/07/24 18:20:51;;;;;;;1.52;1.10;;;;;;;16.79;55.11;99523.00;10530434;28;20516;-76
2023/07/24 18:25:53;;;;;;;1.73;0.90;;;;;;;16.72;55.74;99522.78;10504463;28;20041;-75
2023/07/24 18:30:55;;;;;;;2.25;0.90;;;;;;;16.61;56.24;99535.47;10522977;28;20518;-79
2023/07/24 18:35:57;;;;;;;2.25;0.80;;;;;;;16.55;57.51;99532.94;10511644;28;20033;-79
2023/07/24 18:40:59;;;;;;;0.50;0.50;;;;;;;16.52;57.20;99532.84;10522848;28;20451;-77
2023/07/24 18:46:01;;;;;;;1.27;0.82;;;;;;;16.46;58.08;99529.47;10525843;28;20051;-77
2023/07/24 18:51:04;;;;;;;3.15;0.80;;;;;;;16.49;58.45;99528.81;10525775;28;20048;-86
2023/07/24 18:56:06;;;;;;;2.45;0.77;;;;;;;16.44;59.72;99525.44;10519026;28;20515;-84
2023/07/24 19:01:08;;;;;;;1.70;1.27;;;;;;;16.42;60.09;99525.78;10513135;28;20059;-88
2023/07/24 19:06:11;;;;;;;1.55;1.20;;;;;;;16.31;60.44;99524.63;10530815;28;20037;-81
2023/07/24 19:11:13;;;;;;;2.90;1.20;;;;;;;16.32;60.93;99525.47;10515618;28;20100;-78
2023/07/24 19:16:15;;;;;;;2.15;0.80;;;;;;;16.24;61.05;99513.34;10499583;28;20037;-76
2023/07/24 19:21:17;;;;;;;1.13;0.80;;;;;;;16.28;61.83;99522.56;10521090;28;20518;-75
2023/07/24 19:26:20;;;;;;;1.50;1.15;;;;;;;16.34;61.87;99523.16;10489059;28;20053;-75
2023/07/24 19:31:22;;;;;;;1.00;0.80;;;;;;;16.26;62.39;99522.09;10488485;28;20052;-76
2023/07/24 19:36:24;;;;;;;2.50;0.70;;;;;;;16.15;62.95;99523.75;10454318;28;20050;-75
2023/07/24 19:41:26;;;;;;;1.10;1.00;;;;;;;16.15;63.27;99523.75;10497693;28;20033;-75
2023/07/24 19:46:28;;;;;;;1.02;0.80;;;;;;;16.15;63.12;99532.03;10523290;28;20057;-75
2023/07/24 19:51:31;;;;;;;1.00;0.85;;;;;;;16.19;63.41;99530.19;10510254;28;20051;-74
2023/07/24 19:56:33;;;;;;;0.70;0.70;;;;;;;16.45;64.42;99532.59;10519303;28;20049;-75
2023/07/24 20:01:35;;;;;;;1.30;0.80;;;;;;;16.43;63.55;99532.94;10529998;28;20048;-74
2023/07/24 20:06:37;;;;;;;0.80;0.80;;;;;;;16.38;63.86;99533.19;10538610;28;20531;-74
2023/07/24 20:11:44;;;;;;;1.13;0.80;;;;;;;16.44;63.00;99539.28;10525069;28;20070;-75
2023/07/24 20:16:46;;;;;;;0.80;0.80;;;;;;;16.40;63.69;99536.41;10509425;28;20040;-74
2023/07/24 20:21:48;;;;;;;0.93;0.82;;;;;;;16.32;64.07;99539.31;10515409;28;20045;-74
2023/07/24 20:26:51;;;;;;;1.10;0.95;;;;;;;16.24;64.20;99533.53;10526574;28;20044;-74
2023/07/24 20:31:53;;;;;;;1.42;0.95;;;;;;;16.38;65.51;99526.84;10524512;28;20075;-73
2023/07/24 20:36:55;;;;;;;0.90;0.80;;;;;;;16.67;63.65;99526.63;10508105;28;20041;-73
2023/07/24 20:41:57;;;;;;;1.15;1.00;;;;;;;16.43;64.68;99534.91;10523349;28;20649;-73
2023/07/24 20:46:59;;;;;;;1.42;1.10;;;;;;;16.59;65.23;99533.03;10524486;28;20048;-73
2023/07/24 20:52:01;;;;;;;3.28;1.20;;;;;;;16.68;64.50;99531.00;10522457;28;20052;-73
2023/07/24 20:57:05;;;;;;;1.85;1.40;;;;;;;16.56;64.12;99530.97;10525513;28;20418;-73
2023/07/24 21:02:07;;;;;;;3.33;1.33;;;;;;;16.59;63.76;99528.31;10506098;28;20044;-73
2023/07/24 21:07:09;;;;;;;2.55;1.40;;;;;;;16.52;64.39;99530.88;10523630;28;20503;-73
2023/07/24 21:12:11;;;;;;;3.60;1.50;;;;;;;16.55;64.59;99523.81;10523981;28;20502;-74
2023/07/24 21:17:14;;;;;;;2.78;1.45;;;;;;;16.45;65.25;99532.59;10520556;28;20048;-73
2023/07/24 21:22:16;;;;;;;5.28;1.20;;;;;;;16.51;64.62;99529.25;10518536;28;20044;-74
2023/07/24 21:27:18;;;;;;;1.45;1.25;;;;;;;16.35;65.79;99527.53;10523302;28;20045;-73
2023/07/24 21:32:21;;;;;;;1.98;1.35;;;;;;;16.17;66.08;99527.78;10520434;28;20063;-73
2023/07/24 21:37:23;;;;;;;2.58;1.60;;;;;;;16.06;66.53;99531.34;10489197;28;20434;-73
2023/07/24 21:42:25;;;;;;;2.45;1.48;;;;;;;15.94;66.42;99527.38;10525658;28;20036;-73
2023/07/24 21:47:28;;;;;;;1.55;1.02;;;;;;;15.95;66.97;99533.72;10525451;28;20040;-73
2023/07/24 21:52:30;;;;;;;1.73;1.30;;;;;;;16.02;66.64;99520.16;10514967;28;20059;-73
2023/07/24 21:57:32;;;;;;;3.17;1.40;;;;;;;15.98;66.57;99513.69;10513680;28;20047;-72
2023/07/24 22:02:34;;;;;;;1.75;1.40;;;;;;;15.89;66.62;99518.50;10525457;28;20052;-74
2023/07/24 22:07:36;;;;;;;2.70;1.38;;;;;;;15.88;66.32;99520.47;10507907;28;20047;-72
2023/07/24 22:12:38;;;;;;;1.77;1.27;;;;;;;15.96;66.23;99521.50;10534376;28;20106;-74
2023/07/24 22:17:41;;;;;;;2.17;1.23;;;;;;;15.91;66.08;99508.72;10525089;28;20048;-73
2023/07/24 22:22:43;;;;;;;2.38;1.13;;;;;;;16.01;65.54;99512.19;10522337;28;20041;-74
2023/07/24 22:27:45;;;;;;;3.45;1.60;;;;;;;16.14;64.81;99497.19;10559547;28;20052;-73
2023/07/24 22:32:47;;;;;;;4.72;1.33;;;;;;;16.28;65.04;99503.19;10532090;28;20140;-73
2023/07/24 22:37:49;;;;;;;2.00;1.33;;;;;;;16.23;64.76;99498.69;10532819;28;20063;-73
2023/07/24 22:42:52;;;;;;;3.33;1.63;;;;;;;16.33;64.66;99497.44;10533897;28;20538;-73
2023/07/24 22:47:55;;;;;;;1.67;1.45;;;;;;;16.13;65.57;99503.88;10532521;28;20506;-73
2023/07/24 22:52:57;;;;;;;1.75;1.20;;;;;;;16.06;66.30;99498.13;10531991;28;20045;-73
2023/07/24 22:57:59;;;;;;;3.10;1.60;;;;;;;15.93;67.21;99506.41;10530398;28;20048;-73
2023/07/24 23:03:01;;;;;;;5.45;1.70;;;;;;;16.03;67.25;99505.16;10534389;28;20059;-73
2023/07/24 23:08:04;;;;;;;2.97;1.70;;;;;;;15.97;67.52;99496.28;10512273;28;20090;-73
2023/07/24 23:13:07;;;;;;;2.90;1.35;;;;;;;15.89;67.81;99491.66;10530311;28;20059;-73
2023/07/24 23:18:09;;;;;;;2.22;1.63;;;;;;;16.05;67.05;99490.97;10527175;28;20052;-73
2023/07/24 23:23:11;;;;;;;3.40;1.60;;;;;;;16.15;66.51;99485.78;10493732;28;20502;-73
2023/07/24 23:28:13;;;;;;;2.47;1.38;;;;;;;16.09;66.08;99480.81;10528678;28;20042;-73